createdAt,value
2019-02-15T00:02:18.457Z,95.20
2019-02-15T00:04:46.022Z,95.20
2019-02-15T00:07:13.497Z,95.20
2019-02-15T00:09:41.071Z,95.20
2019-02-15T00:12:08.588Z,95.30
2019-02-15T00:14:44.745Z,95.30
2019-02-15T00:17:13.584Z,95.40
2019-02-15T00:19:44.744Z,95.40
2019-02-15T00:22:12.372Z,95.40
2019-02-15T00:24:39.831Z,95.40
2019-02-15T00:27:07.372Z,95.50
2019-02-15T00:29:35.002Z,95.50
2019-02-15T00:32:02.516Z,95.50
2019-02-15T00:34:30.156Z,95.60
2019-02-15T00:36:57.819Z,95.60
2019-02-15T00:39:25.331Z,95.60
2019-02-15T00:41:52.788Z,95.70
2019-02-15T00:44:20.206Z,95.70
2019-02-15T00:47:09.798Z,95.70
2019-02-15T00:49:45.177Z,95.80
2019-02-15T00:52:18.622Z,95.80
2019-02-15T00:54:54.963Z,95.90
2019-02-15T00:57:44.418Z,95.80
2019-02-15T01:00:32.581Z,95.80
2019-02-15T01:03:28.522Z,95.90
2019-02-15T01:06:15.422Z,95.80
2019-02-15T01:08:57.518Z,95.90
2019-02-15T01:11:37.331Z,96.20
2019-02-15T01:14:04.838Z,96.30
2019-02-15T01:16:32.267Z,96.30
2019-02-15T01:18:59.931Z,96.60
2019-02-15T01:21:27.452Z,96.30
2019-02-15T01:23:55.038Z,96.30
2019-02-15T01:26:47.828Z,96.30
2019-02-15T01:29:52.766Z,96.30
2019-02-15T01:32:42.227Z,96.30
2019-02-15T01:35:15.435Z,96.30
2019-02-15T01:37:59.077Z,96.30
2019-02-15T01:40:47.739Z,96.30
2019-02-15T01:43:24.524Z,96.30
2019-02-15T01:46:23.797Z,96.30
2019-02-15T01:48:51.467Z,96.30
2019-02-15T01:51:19.006Z,96.40
2019-02-15T01:53:46.557Z,96.40
2019-02-15T01:56:14.123Z,96.50
2019-02-15T01:58:41.673Z,96.50
2019-02-15T02:01:09.180Z,96.50
2019-02-15T02:03:36.639Z,96.60
2019-02-15T02:06:04.032Z,96.60
2019-02-15T02:08:32.121Z,96.60
2019-02-15T02:10:59.590Z,96.60
2019-02-15T02:13:27.192Z,96.70
2019-02-15T02:15:54.806Z,96.60
2019-02-15T02:18:22.348Z,96.60
2019-02-15T02:20:51.105Z,96.70
2019-02-15T02:23:18.603Z,96.70
2019-02-15T02:25:45.989Z,96.70
2019-02-15T02:28:13.438Z,96.70
2019-02-15T02:30:40.894Z,96.80
2019-02-15T02:33:09.394Z,96.80
2019-02-15T02:35:37.024Z,96.80
2019-02-15T02:38:04.527Z,96.80
2019-02-15T02:40:32.113Z,96.90
2019-02-15T02:42:59.522Z,96.90
2019-02-15T02:45:26.965Z,97.00
2019-02-15T02:47:54.418Z,96.90
2019-02-15T02:50:21.918Z,97.00
2019-02-15T02:52:49.512Z,97.00
2019-02-15T02:55:17.090Z,97.10
2019-02-15T02:57:44.597Z,97.10
2019-02-15T03:00:12.137Z,97.10
2019-02-15T03:02:40.065Z,97.10
2019-02-15T03:05:07.661Z,97.10
2019-02-15T03:07:35.178Z,97.20
2019-02-15T03:10:03.256Z,97.20
2019-02-15T03:12:32.227Z,97.40
2019-02-15T03:14:59.846Z,97.20
2019-02-15T03:17:27.343Z,97.20
2019-02-15T03:19:54.775Z,97.20
2019-02-15T03:22:22.176Z,97.30
2019-02-15T03:24:49.811Z,97.20
2019-02-15T03:27:17.269Z,97.20
2019-02-15T03:29:44.888Z,97.30
2019-02-15T03:32:12.490Z,97.30
2019-02-15T03:34:40.028Z,97.30
2019-02-15T03:37:32.795Z,97.30
2019-02-15T03:40:05.491Z,97.40
2019-02-15T03:42:33.044Z,97.40
2019-02-15T03:45:00.537Z,97.40
2019-02-15T03:47:28.152Z,97.40
2019-02-15T03:49:55.653Z,97.50
2019-02-15T03:52:24.191Z,97.50
2019-02-15T03:54:51.728Z,97.50
2019-02-15T03:57:19.450Z,97.50
2019-02-15T03:59:47.180Z,97.50
2019-02-15T04:02:14.725Z,97.50
2019-02-15T04:04:42.340Z,97.40
2019-02-15T04:07:09.847Z,97.50
2019-02-15T04:09:37.274Z,97.50
2019-02-15T04:12:04.688Z,97.50
2019-02-15T04:14:33.216Z,97.60
2019-02-15T04:17:01.133Z,97.60
2019-02-15T04:19:28.691Z,97.60
2019-02-15T04:21:56.257Z,97.60
2019-02-15T04:24:24.034Z,97.60
2019-02-15T04:26:51.705Z,97.60
2019-02-15T04:29:19.226Z,97.70
2019-02-15T04:31:46.820Z,97.60
2019-02-15T04:34:14.324Z,97.60
2019-02-15T04:36:41.814Z,97.70
2019-02-15T04:39:09.617Z,97.70
2019-02-15T04:41:37.393Z,97.70
2019-02-15T04:44:05.886Z,97.70
2019-02-15T04:46:33.486Z,98.00
2019-02-15T04:49:01.138Z,97.80
2019-02-15T04:51:28.971Z,97.80
2019-02-15T04:53:56.631Z,97.80
2019-02-15T04:56:24.382Z,97.90
2019-02-15T04:58:52.043Z,98.00
2019-02-15T05:01:19.431Z,98.00
2019-02-15T05:03:46.881Z,98.00
2019-02-15T05:06:14.613Z,98.00
2019-02-15T05:08:42.175Z,98.00
2019-02-15T05:11:09.718Z,98.00
2019-02-15T05:13:37.524Z,98.00
2019-02-15T05:16:04.927Z,98.00
2019-02-15T05:18:32.404Z,98.00
2019-02-15T05:21:00.063Z,98.00
2019-02-15T05:23:27.670Z,98.10
2019-02-15T05:25:55.283Z,98.00
2019-02-15T05:28:22.734Z,98.10
2019-02-15T05:30:50.307Z,98.10
2019-02-15T05:33:17.853Z,98.20
2019-02-15T05:35:45.254Z,98.10
2019-02-15T05:38:12.705Z,98.20
2019-02-15T05:40:40.146Z,98.20
2019-02-15T05:43:07.778Z,98.20
2019-02-15T05:45:35.474Z,98.20
2019-02-15T05:48:04.101Z,98.20
2019-02-15T05:50:31.558Z,98.20
2019-02-15T05:52:59.271Z,98.50
2019-02-15T05:55:26.859Z,98.30
2019-02-15T05:57:54.351Z,98.30
2019-02-15T06:00:23.133Z,98.40
2019-02-15T06:02:50.811Z,98.30
2019-02-15T06:05:18.356Z,98.40
2019-02-15T06:07:46.121Z,98.40
2019-02-15T06:10:13.695Z,98.40
2019-02-15T06:12:41.396Z,98.50
2019-02-15T06:15:15.105Z,98.50
2019-02-15T06:17:38.373Z,98.60
2019-02-15T06:20:06.222Z,98.60
2019-02-15T06:22:33.797Z,98.60
2019-02-15T06:25:01.360Z,98.60
2019-02-15T06:27:28.902Z,98.40
2019-02-15T06:29:56.384Z,98.60
2019-02-15T06:32:23.916Z,98.60
2019-02-15T06:34:51.473Z,98.70
2019-02-15T06:37:21.393Z,98.70
2019-02-15T06:39:49.398Z,98.70
2019-02-15T06:42:16.963Z,98.70
2019-02-15T06:44:44.441Z,98.70
2019-02-15T06:47:11.978Z,98.90
2019-02-15T06:49:39.409Z,98.70
2019-02-15T06:52:06.880Z,98.70
2019-02-15T06:54:34.418Z,98.80
2019-02-15T06:57:01.691Z,98.80
2019-02-15T06:59:51.520Z,98.80
2019-02-15T07:02:36.782Z,98.80
2019-02-15T07:05:23.123Z,98.80
2019-02-15T07:07:50.548Z,98.70
2019-02-15T07:10:18.165Z,98.70
2019-02-15T07:12:45.794Z,98.70
2019-02-15T07:15:13.223Z,98.80
2019-02-15T07:17:40.643Z,98.80
2019-02-15T07:20:08.559Z,98.80
2019-02-15T07:22:36.015Z,98.80
2019-02-15T07:25:05.554Z,98.80
2019-02-15T07:27:33.087Z,98.80
2019-02-15T07:30:00.559Z,98.70
2019-02-15T07:32:28.633Z,98.70
2019-02-15T07:34:58.519Z,98.70
2019-02-15T07:37:25.851Z,98.70
2019-02-15T07:39:53.394Z,98.70
2019-02-15T07:42:21.361Z,98.70
2019-02-15T07:44:49.005Z,98.70
2019-02-15T07:47:16.650Z,98.80
2019-02-15T07:49:44.181Z,98.70
2019-02-15T07:52:11.611Z,98.70
2019-02-15T07:54:39.168Z,98.80
2019-02-15T07:57:06.719Z,99.00
2019-02-15T07:59:34.205Z,98.70
2019-02-15T08:02:02.280Z,98.80
2019-02-15T08:04:34.276Z,98.80
2019-02-15T08:07:01.962Z,98.70
2019-02-15T08:09:29.512Z,98.70
2019-02-15T08:11:57.341Z,98.70
2019-02-15T08:14:24.979Z,98.70
2019-02-15T08:16:52.526Z,98.70
2019-02-15T08:19:21.263Z,98.70
2019-02-15T08:21:49.002Z,98.70
2019-02-15T08:24:16.377Z,98.70
2019-02-15T08:26:44.120Z,98.70
2019-02-15T08:29:12.815Z,98.70
2019-02-15T08:31:40.474Z,98.70
2019-02-15T08:34:08.130Z,98.70
2019-02-15T08:36:35.427Z,98.70
2019-02-15T08:39:04.732Z,98.70
2019-02-15T08:41:34.074Z,98.70
2019-02-15T08:44:01.634Z,98.70
2019-02-15T08:46:30.057Z,98.80
2019-02-15T08:48:57.974Z,98.70
2019-02-15T08:51:25.467Z,98.70
2019-02-15T08:53:52.907Z,98.80
2019-02-15T08:56:20.397Z,98.80
2019-02-15T08:58:48.087Z,98.80
2019-02-15T09:01:15.532Z,98.80
2019-02-15T09:03:42.985Z,98.70
2019-02-15T09:06:10.460Z,98.70
2019-02-15T09:08:38.119Z,98.60
2019-02-15T09:11:05.647Z,98.60
2019-02-15T09:13:33.051Z,98.60
2019-02-15T09:16:00.454Z,98.50
2019-02-15T09:18:27.982Z,98.40
2019-02-15T09:20:55.507Z,98.30
2019-02-15T09:23:22.778Z,98.30
2019-02-15T09:25:50.229Z,98.10
2019-02-15T09:28:37.317Z,98.00
2019-02-15T09:31:04.874Z,97.90
2019-02-15T09:33:32.388Z,97.80
2019-02-15T09:35:59.954Z,97.70
2019-02-15T09:38:27.235Z,97.60
2019-02-15T09:40:54.754Z,97.50
2019-02-15T09:43:22.080Z,97.40
2019-02-15T09:45:49.549Z,97.30
2019-02-15T09:48:17.214Z,97.20
2019-02-15T09:50:44.702Z,97.20
2019-02-15T09:53:12.151Z,97.00
2019-02-15T09:55:39.710Z,97.00
2019-02-15T09:58:07.115Z,96.90
2019-02-15T10:00:34.613Z,96.80
2019-02-15T10:03:02.234Z,96.60
2019-02-15T10:05:30.042Z,96.50
2019-02-15T10:07:57.600Z,96.50
2019-02-15T10:10:25.273Z,96.30
2019-02-15T10:12:52.929Z,96.20
2019-02-15T10:15:20.454Z,96.00
2019-02-15T10:17:48.134Z,96.00
2019-02-15T10:20:15.595Z,95.80
2019-02-15T10:22:43.511Z,95.60
2019-02-15T10:25:11.244Z,95.50
2019-02-15T10:27:38.976Z,95.30
2019-02-15T10:30:07.244Z,95.20
2019-02-15T10:32:35.198Z,95.00
2019-02-15T10:35:03.325Z,94.80
2019-02-15T10:37:30.894Z,94.70
2019-02-15T10:39:58.324Z,94.50
2019-02-15T10:42:25.779Z,94.40
2019-02-15T10:44:55.715Z,94.20
2019-02-15T10:47:25.201Z,94.10
2019-02-15T10:49:52.630Z,93.90
2019-02-15T10:52:25.892Z,93.80
2019-02-15T10:54:53.484Z,93.50
2019-02-15T10:57:21.058Z,93.40
2019-02-15T10:59:48.667Z,93.30
2019-02-15T11:02:16.394Z,93.00
2019-02-15T11:04:43.806Z,92.90
2019-02-15T11:07:11.398Z,92.60
2019-02-15T11:09:38.846Z,92.30
2019-02-15T11:12:06.250Z,92.10
2019-02-15T11:14:36.761Z,91.90
2019-02-15T11:17:04.502Z,91.50
2019-02-15T11:19:31.945Z,91.20
2019-02-15T11:21:59.491Z,91.00
2019-02-15T11:24:26.938Z,90.70
2019-02-15T11:26:54.377Z,87.20
2019-02-15T11:29:21.935Z,87.40
2019-02-15T11:31:49.315Z,87.10
2019-02-15T11:34:16.706Z,86.60
2019-02-15T11:36:44.289Z,86.60
2019-02-15T11:39:12.139Z,86.40
2019-02-15T11:41:39.777Z,86.30
2019-02-15T11:44:07.409Z,86.20
2019-02-15T11:46:34.715Z,85.70
2019-02-15T11:49:02.378Z,85.30
2019-02-15T11:51:30.051Z,84.90
2019-02-15T11:53:58.666Z,83.40
2019-02-15T11:56:26.642Z,83.00
2019-02-15T11:58:54.158Z,82.60
2019-02-15T12:01:21.731Z,82.00
2019-02-15T12:03:49.543Z,81.30
2019-02-15T12:06:17.301Z,80.40
2019-02-15T12:08:44.977Z,80.20
2019-02-15T12:11:12.459Z,79.20
2019-02-15T12:13:39.768Z,78.90
2019-02-15T12:16:07.249Z,78.60
2019-02-15T12:18:34.781Z,78.00
2019-02-15T12:21:02.219Z,77.40
2019-02-15T12:23:31.699Z,76.40
2019-02-15T12:26:00.315Z,75.80
2019-02-15T12:28:27.667Z,75.50
2019-02-15T12:30:55.193Z,74.80
2019-02-15T12:33:22.722Z,73.90
2019-02-15T12:35:50.351Z,73.70
2019-02-15T12:38:17.820Z,73.20
2019-02-15T12:40:45.419Z,72.20
2019-02-15T12:43:13.177Z,71.20
2019-02-15T12:45:40.787Z,70.70
2019-02-15T12:48:08.442Z,70.30
2019-02-15T12:50:36.505Z,70.10
2019-02-15T12:53:04.033Z,69.70
2019-02-15T12:55:31.725Z,69.40
2019-02-15T12:57:59.550Z,68.80
2019-02-15T13:00:27.174Z,68.50
2019-02-15T13:02:54.660Z,66.10
2019-02-15T13:05:22.327Z,66.00
2019-02-15T13:07:50.018Z,64.00
2019-02-15T13:10:21.559Z,64.20
2019-02-15T13:12:49.074Z,64.20
2019-02-15T13:15:16.674Z,64.40
2019-02-15T13:17:44.230Z,63.70
2019-02-15T13:20:11.796Z,64.10
2019-02-15T13:22:40.617Z,63.90
2019-02-15T13:25:08.440Z,63.50
2019-02-15T13:27:36.202Z,63.30
2019-02-15T13:30:04.122Z,63.20
2019-02-15T13:32:33.272Z,63.20
2019-02-15T13:35:01.352Z,63.10
2019-02-15T13:37:28.919Z,62.80
2019-02-15T13:39:56.489Z,62.50
2019-02-15T13:42:25.291Z,62.40
2019-02-15T13:44:52.870Z,62.30
2019-02-15T13:47:20.580Z,62.10
2019-02-15T13:49:48.276Z,61.80
2019-02-15T13:52:15.778Z,61.40
2019-02-15T13:54:43.306Z,61.20
2019-02-15T13:57:10.861Z,61.00
2019-02-15T13:59:39.153Z,60.90
2019-02-15T14:02:06.639Z,60.90
2019-02-15T14:04:35.134Z,60.70
2019-02-15T14:07:14.510Z,58.10
2019-02-15T14:09:41.839Z,58.50
2019-02-15T14:12:09.561Z,56.10
2019-02-15T14:14:37.055Z,56.70
2019-02-15T14:17:04.799Z,57.00
2019-02-15T14:19:34.780Z,57.40
2019-02-15T14:22:02.320Z,57.50
2019-02-15T14:24:30.384Z,57.70
2019-02-15T14:26:58.045Z,57.70
2019-02-15T14:29:25.576Z,57.90
2019-02-15T14:31:53.259Z,57.90
2019-02-15T14:34:24.253Z,57.90
2019-02-15T14:36:55.248Z,58.00
2019-02-15T14:39:27.620Z,58.00
2019-02-15T14:41:55.872Z,58.20
2019-02-15T14:44:38.591Z,57.90
2019-02-15T14:47:26.404Z,58.20
2019-02-15T14:49:59.416Z,58.20
2019-02-15T14:52:28.086Z,58.20
2019-02-15T14:54:59.654Z,58.30
2019-02-15T14:57:28.455Z,58.40
2019-02-15T14:59:56.828Z,58.40
2019-02-15T15:02:27.529Z,57.00
2019-02-15T15:05:00.288Z,57.10
2019-02-15T15:07:30.028Z,57.50
2019-02-15T15:09:58.610Z,57.50
2019-02-15T15:12:27.822Z,57.70
2019-02-15T15:15:02.659Z,57.50
2019-02-15T15:17:41.994Z,57.50
2019-02-15T15:20:13.145Z,57.60
2019-02-15T15:22:42.692Z,57.80
2019-02-15T15:28:07.045Z,58.00
2019-02-15T15:30:40.734Z,58.10
2019-02-15T15:33:09.435Z,58.20
2019-02-15T15:35:40.284Z,58.30
2019-02-15T15:38:30.980Z,58.50
2019-02-15T15:41:04.377Z,58.60
2019-02-15T15:43:36.692Z,58.70
2019-02-15T15:46:09.998Z,57.60
2019-02-15T15:48:59.221Z,57.90
2019-02-15T15:51:35.249Z,58.10
2019-02-15T15:54:05.383Z,58.30
2019-02-15T15:56:37.146Z,58.70
2019-02-15T15:59:09.519Z,58.90
2019-02-15T16:01:37.841Z,59.00
2019-02-15T16:04:06.998Z,59.20
2019-02-15T16:06:37.467Z,59.50
2019-02-15T16:09:06.887Z,59.60
2019-02-15T16:11:41.849Z,59.60
2019-02-15T16:14:15.091Z,59.80
2019-02-15T16:17:06.664Z,60.10
2019-02-15T16:19:48.827Z,60.30
2019-02-15T16:22:12.125Z,60.50
2019-02-15T16:24:40.758Z,60.70
2019-02-15T16:27:17.972Z,61.10
2019-02-15T16:29:44.081Z,61.20
2019-02-15T16:32:13.596Z,60.40
2019-02-15T16:34:49.555Z,60.40
2019-02-15T16:37:21.213Z,60.70
2019-02-15T16:40:05.500Z,61.10
2019-02-15T16:42:59.071Z,61.30
2019-02-15T16:45:35.182Z,61.60
2019-02-15T16:48:03.714Z,61.90
2019-02-15T16:50:57.652Z,62.10
2019-02-15T16:53:48.232Z,62.40
2019-02-15T16:56:43.960Z,62.50
2019-02-15T16:59:14.064Z,62.60
2019-02-15T17:02:23.087Z,63.00
2019-02-15T17:04:51.540Z,63.10
2019-02-15T17:07:30.124Z,63.40
2019-02-15T17:09:58.629Z,63.50
2019-02-15T17:12:26.913Z,63.70
2019-02-15T17:14:56.913Z,63.80
2019-02-15T17:17:27.259Z,63.80
2019-02-15T17:19:58.874Z,63.80
2019-02-15T17:22:46.538Z,63.90
2019-02-15T17:25:18.793Z,64.10
2019-02-15T17:27:47.386Z,64.40
2019-02-15T17:30:18.585Z,64.60
2019-02-15T17:32:48.836Z,64.90
2019-02-15T17:35:19.771Z,65.00
2019-02-15T17:37:48.667Z,66.10
2019-02-15T17:40:36.794Z,66.50
2019-02-15T17:46:24.144Z,67.00
2019-02-15T17:49:30.715Z,67.30
2019-02-15T17:52:06.978Z,67.50
2019-02-15T17:54:44.753Z,67.70
2019-02-15T17:57:27.630Z,68.00
2019-02-15T17:59:58.858Z,68.20
2019-02-15T18:06:08.832Z,68.90
2019-02-15T18:08:48.056Z,69.00
2019-02-15T18:11:25.814Z,69.10
2019-02-15T18:14:29.388Z,69.50
2019-02-15T18:20:36.744Z,70.00
2019-02-15T18:23:09.196Z,70.20
2019-02-15T18:28:49.127Z,70.80
2019-02-15T18:31:26.017Z,71.10
2019-02-15T18:33:54.722Z,71.30
2019-02-15T18:36:30.262Z,71.70
2019-02-15T18:39:23.770Z,71.90
2019-02-15T18:41:52.556Z,72.20
2019-02-15T18:44:24.362Z,72.50
2019-02-15T18:46:56.477Z,72.60
2019-02-15T18:50:06.641Z,72.90
2019-02-15T18:52:35.722Z,73.20
2019-02-15T18:57:56.375Z,74.90
2019-02-15T19:03:15.060Z,74.90
2019-02-15T19:06:06.997Z,75.00
2019-02-15T19:08:45.100Z,75.30
2019-02-15T19:11:16.925Z,75.50
2019-02-15T19:13:49.389Z,75.70
2019-02-15T19:16:22.537Z,75.90
2019-02-15T19:18:53.062Z,76.10
2019-02-15T19:21:22.984Z,76.30
2019-02-15T19:23:56.236Z,76.60
2019-02-15T19:26:53.522Z,76.80
2019-02-15T19:29:23.745Z,77.10
2019-02-15T19:34:43.856Z,77.60
2019-02-15T19:37:12.844Z,77.70
2019-02-15T19:39:48.240Z,78.00
2019-02-15T19:42:36.395Z,78.20
2019-02-15T19:45:22.143Z,78.50
2019-02-15T19:47:54.492Z,78.80
2019-02-15T19:50:29.377Z,79.00
2019-02-15T19:53:04.454Z,79.20
2019-02-15T19:55:41.389Z,79.40
2019-02-15T19:58:12.679Z,80.80
2019-02-15T20:04:28.655Z,80.50
2019-02-15T20:07:09.978Z,80.70
2019-02-15T20:10:05.915Z,80.80
2019-02-15T20:12:35.510Z,81.10
2019-02-15T20:15:47.619Z,81.40
2019-02-15T20:18:41.344Z,81.60
2019-02-15T20:21:17.467Z,82.00
2019-02-15T20:23:51.252Z,82.20
2019-02-15T20:26:24.310Z,82.40
2019-02-15T20:29:36.332Z,82.60
2019-02-15T20:32:08.900Z,82.80
2019-02-15T20:35:07.921Z,82.90
2019-02-15T20:37:48.175Z,83.20
2019-02-15T20:40:47.552Z,83.40
2019-02-15T20:43:33.863Z,83.60
2019-02-15T20:52:00.487Z,84.20
2019-02-15T20:54:53.397Z,84.50
2019-02-15T20:57:32.651Z,84.80
2019-02-15T21:00:23.728Z,85.00
2019-02-15T21:02:58.797Z,85.20
2019-02-15T21:08:54.314Z,85.70
2019-02-15T21:12:04.801Z,86.00
2019-02-15T21:14:47.002Z,86.20
2019-02-15T21:17:21.496Z,86.50
2019-02-15T21:19:54.635Z,86.80
2019-02-15T21:25:48.103Z,87.20
2019-02-15T21:28:36.759Z,87.40
2019-02-15T21:31:44.896Z,87.60
2019-02-15T21:34:41.134Z,87.80
2019-02-15T21:37:28.207Z,87.90
2019-02-15T21:40:18.876Z,88.20
2019-02-15T21:42:56.081Z,88.50
2019-02-15T21:45:30.613Z,88.70
2019-02-15T21:48:08.945Z,89.60
2019-02-15T21:50:59.618Z,89.10
2019-02-15T21:53:30.200Z,89.40
2019-02-15T21:55:58.838Z,89.60
2019-02-15T21:58:30.307Z,89.80
2019-02-15T22:01:09.314Z,89.80
2019-02-15T22:04:03.405Z,89.90
2019-02-15T22:06:51.140Z,90.00
2019-02-15T22:09:42.503Z,90.10
2019-02-15T22:15:04.810Z,90.20
2019-02-15T22:17:37.906Z,90.30
2019-02-15T22:20:26.393Z,90.90
2019-02-15T22:22:59.516Z,90.90
2019-02-15T22:25:34.625Z,90.90
2019-02-15T22:28:25.792Z,90.90
2019-02-15T22:31:01.386Z,90.90
2019-02-15T22:33:57.184Z,90.90
2019-02-15T22:36:25.898Z,91.00
2019-02-15T22:38:54.219Z,91.00
2019-02-15T22:41:28.056Z,91.10
2019-02-15T22:44:00.455Z,91.20
2019-02-15T22:46:31.429Z,91.30
2019-02-15T22:49:02.992Z,91.30
2019-02-15T22:51:41.180Z,91.30
2019-02-15T22:54:41.083Z,91.40
2019-02-15T22:57:19.437Z,91.40
2019-02-15T23:00:15.549Z,91.40
2019-02-15T23:02:53.755Z,91.40
2019-02-15T23:05:27.457Z,91.50
2019-02-15T23:08:00.734Z,91.80
2019-02-15T23:10:38.282Z,91.60
2019-02-15T23:13:27.839Z,91.70
2019-02-15T23:16:18.801Z,91.70
2019-02-15T23:21:37.407Z,91.80
2019-02-15T23:24:14.322Z,91.90
2019-02-15T23:27:07.035Z,92.00
2019-02-15T23:29:35.327Z,92.00
2019-02-15T23:32:07.761Z,92.00
2019-02-15T23:34:39.622Z,92.10
2019-02-15T23:37:10.358Z,92.10
2019-02-15T23:39:39.057Z,92.10
2019-02-15T23:42:10.311Z,92.20
2019-02-15T23:44:41.648Z,92.30
2019-02-15T23:47:14.369Z,92.30
2019-02-15T23:49:43.723Z,92.30
2019-02-15T23:52:17.811Z,92.40
2019-02-15T23:55:05.786Z,92.50
2019-02-15T23:57:40.912Z,92.50
